createdAt,value
2022-09-22T08:22:02.620Z,100.00
2022-09-22T08:24:32.189Z,100.00
2022-09-22T08:27:01.575Z,100.00
2022-09-22T08:29:31.386Z,100.00
2022-09-22T08:32:00.720Z,100.00
2022-09-22T08:34:30.098Z,100.00
2022-09-22T08:36:59.840Z,100.00
2022-09-22T08:39:30.663Z,100.00
2022-09-22T08:42:14.797Z,100.00
2022-09-22T08:44:56.532Z,100.00
2022-09-22T08:47:50.868Z,100.00
2022-09-22T08:50:48.841Z,100.00
2022-09-22T08:53:23.282Z,100.00
2022-09-22T08:56:07.019Z,100.00
2022-09-22T08:58:47.657Z,100.00
2022-09-22T09:01:42.463Z,100.00
2022-09-22T09:04:56.777Z,100.00
2022-09-22T09:07:43.602Z,100.00
2022-09-22T09:10:42.328Z,100.00
2022-09-22T09:13:44.709Z,100.00
2022-09-22T09:16:38.130Z,100.00
2022-09-22T09:19:18.078Z,100.00
2022-09-22T09:21:52.789Z,100.00
2022-09-22T09:27:29.709Z,100.00
2022-09-22T09:30:10.671Z,100.00
2022-09-22T09:32:49.197Z,100.00
2022-09-22T09:35:24.603Z,100.00
2022-09-22T09:37:58.704Z,100.00
2022-09-22T09:40:28.522Z,100.00
2022-09-22T09:43:04.459Z,100.00
2022-09-22T09:45:51.667Z,100.00
2022-09-22T09:48:35.117Z,100.00
2022-09-22T09:51:05.840Z,100.00
2022-09-22T09:53:43.188Z,100.00
2022-09-22T09:56:25.750Z,100.00
2022-09-22T09:59:18.692Z,100.00
2022-09-22T10:01:53.947Z,100.00
2022-09-22T10:04:32.087Z,100.00
2022-09-22T10:07:16.698Z,100.00
2022-09-22T10:09:48.831Z,100.00
2022-09-22T10:12:30.016Z,100.00
2022-09-22T10:15:02.577Z,100.00
2022-09-22T10:17:42.648Z,100.00
2022-09-22T10:20:24.381Z,100.00
2022-09-22T10:22:54.823Z,100.00
2022-09-22T10:25:27.679Z,100.00
2022-09-22T10:28:05.092Z,100.00
2022-09-22T10:30:37.641Z,100.00
2022-09-22T10:33:18.969Z,100.00
2022-09-22T10:35:55.678Z,100.00
2022-09-22T10:38:29.173Z,100.00
2022-09-22T10:41:07.869Z,100.00
2022-09-22T10:43:48.425Z,100.00
2022-09-22T10:46:58.084Z,100.00
2022-09-22T10:50:03.483Z,100.00
2022-09-22T10:52:42.979Z,100.00
2022-09-22T10:55:30.019Z,100.00
2022-09-22T10:58:40.395Z,100.00
2022-09-22T11:01:37.582Z,100.00
2022-09-22T11:04:55.334Z,100.00
2022-09-22T11:08:05.314Z,100.00
2022-09-22T11:11:11.524Z,100.00
2022-09-22T11:14:01.447Z,100.00
2022-09-22T11:17:06.445Z,100.00
2022-09-22T11:20:12.245Z,94.51
2022-09-22T11:23:21.944Z,97.32
2022-09-22T11:26:15.791Z,99.12
2022-09-22T11:29:22.157Z,98.76
2022-09-22T11:32:07.717Z,96.44
2022-09-22T11:35:29.054Z,91.22
2022-09-22T11:38:21.199Z,88.85
2022-09-22T11:41:17.565Z,88.94
2022-09-22T11:44:23.734Z,87.82
2022-09-22T11:47:12.067Z,90.05
2022-09-22T11:50:09.386Z,83.21
2022-09-22T11:53:03.052Z,83.12
2022-09-22T11:55:44.202Z,81.88
2022-09-22T11:58:21.577Z,79.48
2022-09-22T12:00:59.752Z,79.42
2022-09-22T12:03:37.406Z,74.58
2022-09-22T12:06:16.182Z,68.75
2022-09-22T12:09:00.402Z,66.65
2022-09-22T12:11:35.137Z,67.23
2022-09-22T12:14:06.589Z,69.40
2022-09-22T12:16:42.778Z,64.53
2022-09-22T12:19:26.570Z,65.89
2022-09-22T12:22:07.441Z,64.91
2022-09-22T12:24:36.908Z,63.23
2022-09-22T12:27:13.368Z,57.60
2022-09-22T12:29:44.398Z,63.33
2022-09-22T12:32:24.952Z,65.96
2022-09-22T12:34:59.465Z,62.81
2022-09-22T12:37:34.717Z,62.39
2022-09-22T12:40:26.832Z,63.12
2022-09-22T12:42:56.507Z,59.55
2022-09-22T12:45:34.384Z,62.15
2022-09-22T12:48:12.458Z,61.14
2022-09-22T12:50:43.999Z,56.98
2022-09-22T12:53:28.452Z,58.73
2022-09-22T12:55:58.942Z,56.83
2022-09-22T12:58:45.415Z,55.61
2022-09-22T13:01:35.091Z,56.75
2022-09-22T13:04:19.460Z,57.30
2022-09-22T13:07:01.332Z,55.75
2022-09-22T13:09:32.847Z,55.47
2022-09-22T13:12:29.017Z,55.30
2022-09-22T13:15:17.878Z,51.46
2022-09-22T13:17:48.608Z,51.61
2022-09-22T13:20:22.652Z,51.72
2022-09-22T13:22:52.519Z,49.34
2022-09-22T13:25:29.184Z,47.76
2022-09-22T13:28:15.477Z,49.29
2022-09-22T13:30:46.321Z,48.32
2022-09-22T13:33:24.550Z,47.70
2022-09-22T13:36:02.094Z,47.48
2022-09-22T13:38:34.909Z,48.52
2022-09-22T13:41:12.010Z,47.08
2022-09-22T13:43:44.593Z,45.58
2022-09-22T13:46:22.271Z,44.15
2022-09-22T13:48:52.849Z,45.57
2022-09-22T13:51:22.324Z,45.15
2022-09-22T13:53:54.394Z,44.17
2022-09-22T13:56:26.587Z,44.86
2022-09-22T13:58:59.493Z,44.03
2022-09-22T14:01:31.380Z,41.71
2022-09-22T14:04:00.601Z,42.08
2022-09-22T14:06:32.556Z,42.34
2022-09-22T14:09:02.565Z,42.61
2022-09-22T14:11:33.602Z,41.03
2022-09-22T14:14:04.388Z,41.70
2022-09-22T14:16:37.641Z,41.33
2022-09-22T14:19:14.639Z,39.25
2022-09-22T14:21:51.454Z,41.50
2022-09-22T14:24:20.748Z,39.73
2022-09-22T14:26:52.482Z,40.30
2022-09-22T14:29:26.555Z,38.50
2022-09-22T14:32:00.358Z,39.33
2022-09-22T14:34:32.549Z,36.75
2022-09-22T14:37:12.064Z,39.96
2022-09-22T14:39:41.913Z,38.25
2022-09-22T14:42:20.449Z,39.39
2022-09-22T14:44:51.232Z,39.75
2022-09-22T14:47:27.557Z,38.09
2022-09-22T14:50:19.980Z,38.48
2022-09-22T14:52:56.438Z,38.70
2022-09-22T14:55:35.803Z,38.58
2022-09-22T14:58:12.681Z,38.79
2022-09-22T15:01:09.701Z,38.07
2022-09-22T15:03:39.956Z,37.67
2022-09-22T15:06:11.932Z,37.60
2022-09-22T15:08:41.960Z,36.90
2022-09-22T15:11:11.470Z,35.69
2022-09-22T15:13:45.237Z,37.22
2022-09-22T15:16:38.906Z,37.61
2022-09-22T15:19:12.978Z,36.25
2022-09-22T15:21:46.034Z,37.08
2022-09-22T15:24:16.455Z,37.78
2022-09-22T15:26:46.540Z,37.71
2022-09-22T15:29:17.206Z,37.93
2022-09-22T15:31:46.997Z,38.70
2022-09-22T15:34:16.389Z,39.49
2022-09-22T15:36:48.783Z,38.74
2022-09-22T15:39:22.420Z,39.24
2022-09-22T15:41:52.633Z,40.01
2022-09-22T15:44:23.092Z,41.28
2022-09-22T15:46:54.385Z,42.17
2022-09-22T15:49:26.301Z,42.75
2022-09-22T15:51:56.696Z,43.09
2022-09-22T15:54:27.425Z,44.36
2022-09-22T15:56:59.162Z,45.66
2022-09-22T15:59:33.129Z,46.14
2022-09-22T16:02:02.593Z,46.98
2022-09-22T16:04:33.576Z,47.58
2022-09-22T16:07:08.258Z,47.44
2022-09-22T16:09:37.637Z,47.90
2022-09-22T16:12:10.926Z,48.88
2022-09-22T16:14:41.504Z,49.99
2022-09-22T16:17:10.672Z,50.95
2022-09-22T16:19:39.769Z,51.30
2022-09-22T16:22:08.928Z,52.32
2022-09-22T16:24:38.112Z,53.59
2022-09-22T16:27:07.314Z,56.41
2022-09-22T16:29:37.422Z,55.72
2022-09-22T16:32:07.936Z,57.32
2022-09-22T16:34:37.361Z,56.96
2022-09-22T16:37:06.439Z,58.10
2022-09-22T16:39:35.515Z,59.62
2022-09-22T16:42:04.790Z,61.80
2022-09-22T16:44:33.892Z,63.72
2022-09-22T16:47:03.150Z,65.71
2022-09-22T16:49:34.005Z,68.41
2022-09-22T16:52:03.163Z,69.74
2022-09-22T16:54:34.412Z,72.69
2022-09-22T16:57:03.673Z,77.41
2022-09-22T16:59:33.258Z,79.22
2022-09-22T17:02:02.410Z,81.13
2022-09-22T17:04:33.135Z,82.67
2022-09-22T17:07:02.232Z,84.38
2022-09-22T17:09:32.126Z,88.85
2022-09-22T17:12:03.208Z,91.15
2022-09-22T17:14:32.575Z,94.55
2022-09-22T17:17:06.448Z,96.68
2022-09-22T17:19:36.920Z,100.00
2022-09-22T17:22:06.465Z,100.00
2022-09-22T17:24:35.536Z,100.00
2022-09-22T17:27:06.327Z,100.00
2022-09-22T17:29:35.422Z,100.00
2022-09-22T17:32:07.960Z,100.00
2022-09-22T17:34:38.601Z,100.00
2022-09-22T17:37:14.181Z,100.00
2022-09-22T17:39:43.578Z,100.00
2022-09-22T17:42:14.568Z,100.00
2022-09-22T17:44:43.658Z,100.00
2022-09-22T17:47:30.650Z,100.00
2022-09-22T17:50:18.895Z,100.00
2022-09-22T17:53:05.880Z,100.00
2022-09-22T17:55:34.971Z,100.00
2022-09-22T17:58:04.587Z,100.00
2022-09-22T18:00:34.928Z,100.00
2022-09-22T18:03:04.228Z,100.00
2022-09-22T18:05:38.565Z,100.00
2022-09-22T18:08:07.780Z,100.00
2022-09-22T18:10:37.573Z,100.00
2022-09-22T18:13:10.113Z,100.00
2022-09-22T18:15:39.269Z,100.00
2022-09-22T18:18:08.441Z,100.00
2022-09-22T18:20:39.667Z,100.00
2022-09-22T18:23:08.827Z,100.00
2022-09-22T18:25:37.961Z,100.00
2022-09-22T18:28:07.040Z,100.00
2022-09-22T18:30:39.899Z,100.00
2022-09-22T18:33:09.576Z,100.00
2022-09-22T18:35:44.243Z,100.00
2022-09-22T18:38:15.115Z,100.00
2022-09-22T18:40:44.255Z,100.00
2022-09-22T18:43:13.397Z,100.00
2022-09-22T18:45:42.673Z,100.00
2022-09-22T18:48:11.914Z,100.00
2022-09-22T18:50:42.355Z,100.00
2022-09-22T18:53:11.567Z,100.00
2022-09-22T18:55:40.665Z,100.00
2022-09-22T18:58:10.101Z,100.00
2022-09-22T19:00:39.196Z,100.00
2022-09-22T19:03:08.289Z,100.00
2022-09-22T19:05:37.379Z,100.00
2022-09-22T19:08:10.166Z,100.00
2022-09-22T19:10:39.488Z,100.00
2022-09-22T19:13:08.699Z,100.00
2022-09-22T19:15:39.982Z,100.00
2022-09-22T19:18:09.918Z,100.00
2022-09-22T19:20:39.065Z,100.00
2022-09-22T19:23:09.504Z,100.00
2022-09-22T19:25:39.828Z,100.00
2022-09-22T19:28:12.907Z,100.00
2022-09-22T19:30:42.130Z,100.00
2022-09-22T19:33:11.303Z,100.00
2022-09-22T19:35:40.412Z,100.00
2022-09-22T19:38:11.063Z,100.00
2022-09-22T19:40:40.267Z,100.00
2022-09-22T19:43:09.428Z,100.00
2022-09-22T19:45:38.516Z,100.00
2022-09-22T19:48:07.625Z,100.00
2022-09-22T19:50:36.778Z,100.00
2022-09-22T19:53:05.866Z,100.00
2022-09-22T19:55:36.363Z,100.00
2022-09-22T19:58:05.455Z,100.00
2022-09-22T20:00:36.123Z,100.00
2022-09-22T20:03:05.581Z,100.00
2022-09-22T20:05:37.568Z,100.00
2022-09-22T20:08:15.455Z,100.00
2022-09-22T20:10:48.567Z,100.00
2022-09-22T20:13:35.224Z,100.00
2022-09-22T20:16:05.176Z,100.00
2022-09-22T20:18:37.276Z,100.00
2022-09-22T20:21:14.560Z,100.00
2022-09-22T20:23:43.674Z,100.00
2022-09-22T20:26:14.152Z,100.00
2022-09-22T20:28:43.212Z,100.00
2022-09-22T20:31:13.176Z,100.00
2022-09-22T20:33:42.416Z,100.00
2022-09-22T20:36:19.501Z,100.00
2022-09-22T20:38:48.601Z,100.00
2022-09-22T20:41:21.804Z,100.00
2022-09-22T20:43:51.043Z,100.00
2022-09-22T20:46:20.639Z,100.00
2022-09-22T20:48:51.018Z,100.00
2022-09-22T20:51:20.381Z,100.00
2022-09-22T20:53:49.599Z,100.00
2022-09-22T20:56:20.036Z,100.00
2022-09-22T20:58:49.188Z,100.00
2022-09-22T21:01:18.553Z,100.00
2022-09-22T21:03:47.989Z,100.00
2022-09-22T21:06:18.077Z,100.00
2022-09-22T21:09:04.961Z,100.00
2022-09-22T21:11:35.803Z,100.00
2022-09-22T21:14:05.920Z,100.00
2022-09-22T21:16:37.147Z,100.00
2022-09-22T21:19:07.381Z,100.00
2022-09-22T21:21:37.737Z,100.00
2022-09-22T21:24:08.163Z,100.00
2022-09-22T21:26:38.711Z,100.00
2022-09-22T21:29:09.392Z,100.00
2022-09-22T21:31:38.489Z,100.00
2022-09-22T21:34:07.677Z,100.00
2022-09-22T21:36:36.851Z,100.00
2022-09-22T21:39:07.139Z,100.00
2022-09-22T21:41:37.838Z,100.00
2022-09-22T21:44:07.256Z,100.00
2022-09-22T21:46:41.707Z,100.00
2022-09-22T21:49:11.873Z,100.00
2022-09-22T21:51:44.121Z,100.00
2022-09-22T21:54:16.453Z,100.00
2022-09-22T21:56:48.250Z,100.00
2022-09-22T21:59:17.339Z,100.00
2022-09-22T22:01:46.488Z,100.00
2022-09-22T22:04:17.436Z,100.00
2022-09-22T22:06:47.400Z,100.00
2022-09-22T22:09:18.999Z,100.00
2022-09-22T22:11:53.164Z,100.00
2022-09-22T22:14:23.783Z,100.00
2022-09-22T22:16:54.537Z,100.00
2022-09-22T22:19:26.785Z,100.00
2022-09-22T22:21:56.030Z,100.00
2022-09-22T22:24:33.764Z,100.00
2022-09-22T22:27:06.767Z,100.00
2022-09-22T22:29:36.300Z,100.00
2022-09-22T22:32:07.844Z,100.00
2022-09-22T22:34:37.544Z,100.00
2022-09-22T22:37:09.518Z,100.00
2022-09-22T22:39:38.890Z,100.00
2022-09-22T22:42:09.885Z,100.00
2022-09-22T22:44:39.266Z,100.00
2022-09-22T22:47:08.654Z,100.00
2022-09-22T22:49:38.017Z,100.00
2022-09-22T22:52:07.638Z,100.00
2022-09-22T22:54:37.016Z,100.00
2022-09-22T22:57:06.710Z,100.00
2022-09-22T22:59:37.455Z,100.00
2022-09-22T23:02:06.837Z,100.00
2022-09-22T23:04:36.171Z,100.00
2022-09-22T23:07:05.660Z,100.00
2022-09-22T23:09:35.194Z,100.00
2022-09-22T23:12:04.860Z,100.00
2022-09-22T23:14:36.575Z,100.00
2022-09-22T23:17:07.326Z,100.00
2022-09-22T23:19:36.689Z,100.00
2022-09-22T23:22:06.178Z,100.00
2022-09-22T23:24:35.534Z,100.00
2022-09-22T23:27:05.521Z,100.00
2022-09-22T23:29:34.854Z,100.00
2022-09-22T23:32:04.232Z,100.00
2022-09-22T23:34:35.021Z,100.00
2022-09-22T23:37:04.442Z,100.00
2022-09-22T23:39:34.024Z,100.00
2022-09-22T23:42:03.997Z,100.00
2022-09-22T23:44:33.517Z,100.00
2022-09-22T23:47:03.095Z,100.00
2022-09-22T23:49:33.833Z,100.00
2022-09-22T23:52:03.679Z,100.00
2022-09-22T23:54:33.633Z,100.00
2022-09-22T23:57:03.254Z,100.00
2022-09-22T23:59:32.649Z,100.00
